createdAt,value
2018-06-19T00:01:33.446Z,87.30
2018-06-19T00:04:01.729Z,87.04
2018-06-19T00:06:30.049Z,86.18
2018-06-19T00:08:58.301Z,86.28
2018-06-19T00:11:26.577Z,86.72
2018-06-19T00:13:54.817Z,86.38
2018-06-19T00:16:23.081Z,86.61
2018-06-19T00:18:54.516Z,86.18
2018-06-19T00:21:26.251Z,86.29
2018-06-19T00:23:54.609Z,86.69
2018-06-19T00:26:23.106Z,86.81
2018-06-19T00:28:51.397Z,86.48
2018-06-19T00:31:19.673Z,86.01
2018-06-19T00:33:47.969Z,85.78
2018-06-19T00:36:16.212Z,84.77
2018-06-19T00:38:44.681Z,85.42
2018-06-19T00:41:12.946Z,85.18
2018-06-19T00:43:41.193Z,84.68
2018-06-19T00:46:09.729Z,84.69
2018-06-19T00:48:38.100Z,84.54
2018-06-19T00:51:06.357Z,84.70
2018-06-19T00:53:34.617Z,85.44
2018-06-19T00:56:14.361Z,86.43
2018-06-19T00:58:43.005Z,86.12
2018-06-19T01:01:11.586Z,85.70
2018-06-19T01:03:39.856Z,86.80
2018-06-19T01:06:08.337Z,87.28
2018-06-19T01:08:36.599Z,87.00
2018-06-19T01:11:05.076Z,86.95
2018-06-19T01:13:33.314Z,87.17
2018-06-19T01:16:01.566Z,87.55
2018-06-19T01:18:30.009Z,87.83
2018-06-19T01:20:58.246Z,87.91
2018-06-19T01:23:26.536Z,88.66
2018-06-19T01:25:54.942Z,89.33
2018-06-19T01:28:23.203Z,89.04
2018-06-19T01:30:51.517Z,87.88
2018-06-19T01:33:19.797Z,89.53
2018-06-19T01:35:48.056Z,88.72
2018-06-19T01:38:16.320Z,88.17
2018-06-19T01:40:44.801Z,88.22
2018-06-19T01:43:13.041Z,88.61
2018-06-19T01:45:41.276Z,88.56
2018-06-19T01:48:09.563Z,88.75
2018-06-19T01:50:37.985Z,87.96
2018-06-19T01:53:06.222Z,87.55
2018-06-19T01:55:34.978Z,87.45
2018-06-19T01:58:03.212Z,87.07
2018-06-19T02:00:31.461Z,86.67
2018-06-19T02:03:00.011Z,87.29
2018-06-19T02:05:28.253Z,87.39
2018-06-19T02:07:56.489Z,87.16
2018-06-19T02:10:24.773Z,87.42
2018-06-19T02:12:53.041Z,87.89
2018-06-19T02:15:21.341Z,87.28
2018-06-19T02:17:49.664Z,87.98
2018-06-19T02:20:17.913Z,88.38
2018-06-19T02:22:46.157Z,88.35
2018-06-19T02:25:14.510Z,88.80
2018-06-19T02:27:42.764Z,88.93
2018-06-19T02:30:11.017Z,87.99
2018-06-19T02:32:39.303Z,88.07
2018-06-19T02:35:07.553Z,88.24
2018-06-19T02:37:35.805Z,87.27
2018-06-19T02:40:04.122Z,87.55
2018-06-19T02:42:32.413Z,87.06
2018-06-19T02:45:00.665Z,87.00
2018-06-19T02:47:29.079Z,87.42
2018-06-19T02:49:57.323Z,87.87
2018-06-19T02:52:25.609Z,88.03
2018-06-19T02:54:54.285Z,88.01
2018-06-19T02:57:22.553Z,87.81
2018-06-19T02:59:50.793Z,87.69
2018-06-19T03:02:19.057Z,87.34
2018-06-19T03:04:47.300Z,86.39
2018-06-19T03:07:15.572Z,86.55
2018-06-19T03:09:43.809Z,87.14
2018-06-19T03:12:12.072Z,87.05
2018-06-19T03:14:40.319Z,86.70
2018-06-19T03:17:08.596Z,87.20
2018-06-19T03:19:37.012Z,86.22
2018-06-19T03:22:05.325Z,86.30
2018-06-19T03:24:33.569Z,86.14
2018-06-19T03:27:01.841Z,86.09
2018-06-19T03:29:30.082Z,85.93
2018-06-19T03:31:58.353Z,85.54
2018-06-19T03:34:26.680Z,85.51
2018-06-19T03:36:54.969Z,86.03
2018-06-19T03:39:23.225Z,86.15
2018-06-19T03:41:51.471Z,85.98
2018-06-19T03:44:19.862Z,86.05
2018-06-19T03:46:48.133Z,85.77
2018-06-19T03:49:16.405Z,86.36
2018-06-19T03:51:44.649Z,86.35
2018-06-19T03:54:12.951Z,86.82
2018-06-19T03:56:41.222Z,86.38
2018-06-19T03:59:09.490Z,86.87
2018-06-19T04:01:37.749Z,85.46
2018-06-19T04:04:06.166Z,85.78
2018-06-19T04:06:34.405Z,85.39
2018-06-19T04:09:05.027Z,85.44
2018-06-19T04:11:33.276Z,85.06
2018-06-19T04:14:01.554Z,85.20
2018-06-19T04:16:29.828Z,84.53
2018-06-19T04:18:58.108Z,84.10
2018-06-19T04:21:26.357Z,83.35
2018-06-19T04:23:54.633Z,83.25
2018-06-19T04:26:22.878Z,83.30
2018-06-19T04:28:51.162Z,82.60
2018-06-19T04:31:19.397Z,83.25
2018-06-19T04:33:47.929Z,83.05
2018-06-19T04:36:16.187Z,83.22
2018-06-19T04:38:44.433Z,83.06
2018-06-19T04:41:12.792Z,82.39
2018-06-19T04:43:41.036Z,81.40
2018-06-19T04:46:09.315Z,80.70
2018-06-19T04:48:37.556Z,81.26
2018-06-19T04:51:05.933Z,81.32
2018-06-19T04:53:34.186Z,81.34
2018-06-19T04:56:02.508Z,80.52
2018-06-19T04:58:30.782Z,81.04
2018-06-19T05:00:59.049Z,80.36
2018-06-19T05:03:27.359Z,80.64
2018-06-19T05:05:55.670Z,80.16
2018-06-19T05:08:23.929Z,80.41
2018-06-19T05:10:52.201Z,80.51
2018-06-19T05:13:20.514Z,80.73
2018-06-19T05:15:48.775Z,79.44
2018-06-19T05:18:17.021Z,79.48
2018-06-19T05:20:45.285Z,79.31
2018-06-19T05:23:13.530Z,77.98
2018-06-19T05:25:41.806Z,79.25
2018-06-19T05:28:10.037Z,78.29
2018-06-19T05:30:38.308Z,77.88
2018-06-19T05:33:06.575Z,79.15
2018-06-19T05:35:34.867Z,78.72
2018-06-19T05:38:03.421Z,77.10
2018-06-19T05:40:31.778Z,77.17
2018-06-19T05:43:00.058Z,76.33
2018-06-19T05:45:28.473Z,76.64
2018-06-19T05:47:56.751Z,77.06
2018-06-19T05:50:24.996Z,78.12
2018-06-19T05:52:53.326Z,78.17
2018-06-19T05:55:21.544Z,79.49
2018-06-19T05:57:49.841Z,79.23
2018-06-19T06:00:18.184Z,79.44
2018-06-19T06:02:46.452Z,78.30
2018-06-19T06:05:14.825Z,77.53
2018-06-19T06:07:43.141Z,78.05
2018-06-19T06:10:11.378Z,78.53
2018-06-19T06:12:39.641Z,77.96
2018-06-19T06:15:07.884Z,77.73
2018-06-19T06:17:36.183Z,77.64
2018-06-19T06:20:05.217Z,76.50
2018-06-19T06:22:33.477Z,77.17
2018-06-19T06:25:01.724Z,75.71
2018-06-19T06:27:30.054Z,77.21
2018-06-19T06:29:58.372Z,77.06
2018-06-19T06:32:26.645Z,76.68
2018-06-19T06:34:54.919Z,78.38
2018-06-19T06:37:23.167Z,77.39
2018-06-19T06:39:51.473Z,76.49
2018-06-19T06:42:19.720Z,75.64
2018-06-19T06:44:48.063Z,76.11
2018-06-19T06:47:16.250Z,73.95
2018-06-19T06:49:44.522Z,75.09
2018-06-19T06:52:12.768Z,75.25
2018-06-19T06:54:41.078Z,76.45
2018-06-19T06:57:09.323Z,75.84
2018-06-19T06:59:37.593Z,75.77
2018-06-19T07:02:05.852Z,76.59
2018-06-19T07:04:34.277Z,77.75
2018-06-19T07:07:02.537Z,78.89
2018-06-19T07:09:30.953Z,80.21
2018-06-19T07:11:59.243Z,78.59
2018-06-19T07:14:27.494Z,79.43
2018-06-19T07:16:55.765Z,79.63
2018-06-19T07:19:24.050Z,79.28
2018-06-19T07:21:52.305Z,81.36
2018-06-19T07:24:20.548Z,82.33
2018-06-19T07:26:48.819Z,82.61
2018-06-19T07:29:17.061Z,82.99
2018-06-19T07:31:45.329Z,84.43
2018-06-19T07:34:13.701Z,83.46
2018-06-19T07:36:42.048Z,84.02
2018-06-19T07:39:11.024Z,83.01
2018-06-19T07:41:39.356Z,85.08
2018-06-19T07:44:07.685Z,85.02
2018-06-19T07:46:35.897Z,86.25
2018-06-19T07:49:04.158Z,87.04
2018-06-19T07:51:32.461Z,87.52
2018-06-19T07:54:00.889Z,87.05
2018-06-19T07:56:29.265Z,87.26
2018-06-19T07:58:57.501Z,88.52
2018-06-19T08:01:25.781Z,87.60
2018-06-19T08:03:54.025Z,85.90
2018-06-19T08:06:22.347Z,83.44
2018-06-19T08:08:50.606Z,80.88
2018-06-19T08:11:18.853Z,80.00
2018-06-19T08:13:47.134Z,80.41
2018-06-19T08:16:15.397Z,82.51
2018-06-19T08:18:43.732Z,81.59
2018-06-19T08:21:11.989Z,81.44
2018-06-19T08:23:40.297Z,81.44
2018-06-19T08:26:08.553Z,82.98
2018-06-19T08:28:36.862Z,83.30
2018-06-19T08:31:05.104Z,82.82
2018-06-19T08:33:33.408Z,85.14
2018-06-19T08:36:01.666Z,85.81
2018-06-19T08:38:29.945Z,85.96
2018-06-19T08:40:58.249Z,85.16
2018-06-19T08:43:26.556Z,83.91
2018-06-19T08:45:54.840Z,82.96
2018-06-19T08:48:23.129Z,81.60
2018-06-19T08:50:51.377Z,82.79
2018-06-19T08:53:19.692Z,82.92
2018-06-19T08:55:47.951Z,84.21
2018-06-19T08:58:16.261Z,83.60
2018-06-19T09:00:44.553Z,81.10
2018-06-19T09:03:12.824Z,81.22
2018-06-19T09:05:41.144Z,81.79
2018-06-19T09:08:09.393Z,78.73
2018-06-19T09:10:37.680Z,79.34
2018-06-19T09:13:05.954Z,79.63
2018-06-19T09:15:34.256Z,81.17
2018-06-19T09:18:02.529Z,81.84
2018-06-19T09:20:30.826Z,80.76
2018-06-19T09:22:59.089Z,80.87
2018-06-19T09:25:27.374Z,77.95
2018-06-19T09:27:55.665Z,77.06
2018-06-19T09:30:23.933Z,79.18
2018-06-19T09:32:52.177Z,79.63
2018-06-19T09:35:20.488Z,80.93
2018-06-19T09:37:48.726Z,80.71
2018-06-19T09:40:17.027Z,77.89
2018-06-19T09:42:45.389Z,79.27
2018-06-19T09:45:13.944Z,77.97
2018-06-19T09:47:42.393Z,76.04
2018-06-19T09:50:10.650Z,74.71
2018-06-19T09:52:38.989Z,74.45
2018-06-19T09:55:07.287Z,78.07
2018-06-19T09:57:35.957Z,76.42
2018-06-19T10:00:04.706Z,72.67
2018-06-19T10:02:33.177Z,72.11
2018-06-19T10:05:01.480Z,71.06
2018-06-19T10:07:29.769Z,70.38
2018-06-19T10:09:58.049Z,69.20
2018-06-19T10:12:26.360Z,67.90
2018-06-19T10:14:54.618Z,69.07
2018-06-19T10:17:23.033Z,69.19
2018-06-19T10:19:51.393Z,70.96
2018-06-19T10:22:19.676Z,72.77
2018-06-19T10:24:47.933Z,72.16
2018-06-19T10:27:16.210Z,70.65
2018-06-19T10:29:44.455Z,70.64
2018-06-19T10:32:12.780Z,70.87
2018-06-19T10:34:41.059Z,71.00
2018-06-19T10:37:09.329Z,68.71
2018-06-19T10:39:37.632Z,65.47
2018-06-19T10:42:06.197Z,66.20
2018-06-19T10:44:34.449Z,64.96
2018-06-19T10:47:02.713Z,65.65
2018-06-19T10:49:31.145Z,65.87
2018-06-19T10:51:59.405Z,63.80
2018-06-19T10:54:27.777Z,62.73
2018-06-19T10:56:56.017Z,63.61
2018-06-19T10:59:24.272Z,63.12
2018-06-19T11:01:52.526Z,59.81
2018-06-19T11:04:20.797Z,59.53
2018-06-19T11:06:49.049Z,59.96
2018-06-19T11:09:17.314Z,62.59
2018-06-19T11:11:45.607Z,62.28
2018-06-19T11:14:13.948Z,61.60
2018-06-19T11:16:42.119Z,61.94
2018-06-19T11:19:10.389Z,63.55
2018-06-19T11:21:38.665Z,62.05
2018-06-19T11:24:06.999Z,60.80
2018-06-19T11:26:35.257Z,59.36
2018-06-19T11:29:03.565Z,59.83
2018-06-19T11:31:31.797Z,60.54
2018-06-19T11:34:00.070Z,57.83
2018-06-19T11:36:28.313Z,56.82
2018-06-19T11:38:56.614Z,56.54
2018-06-19T11:41:24.884Z,55.29
2018-06-19T11:43:53.424Z,55.52
2018-06-19T11:46:21.701Z,55.33
2018-06-19T11:48:49.950Z,55.49
2018-06-19T11:51:18.259Z,55.48
2018-06-19T11:53:46.478Z,55.04
2018-06-19T11:56:14.737Z,55.24
2018-06-19T11:58:42.985Z,55.74
2018-06-19T12:01:11.386Z,54.92
2018-06-19T12:03:39.565Z,53.89
2018-06-19T12:06:07.863Z,53.49
2018-06-19T12:08:36.113Z,53.25
2018-06-19T12:11:04.385Z,54.16
2018-06-19T12:13:32.673Z,54.96
2018-06-19T12:16:00.974Z,54.77
2018-06-19T12:18:29.217Z,53.24
2018-06-19T12:20:57.521Z,54.98
2018-06-19T12:23:26.011Z,52.82
2018-06-19T12:25:54.288Z,51.85
2018-06-19T12:28:22.571Z,49.06
2018-06-19T12:30:50.832Z,48.42
2018-06-19T12:33:19.101Z,48.89
2018-06-19T12:35:47.361Z,47.38
2018-06-19T12:38:15.621Z,49.10
2018-06-19T12:40:44.025Z,49.26
2018-06-19T12:43:12.813Z,49.77
2018-06-19T12:45:41.049Z,49.33
2018-06-19T12:48:09.336Z,48.92
2018-06-19T12:50:48.721Z,49.91
2018-06-19T12:53:28.364Z,49.39
2018-06-19T12:56:08.109Z,49.15
2018-06-19T12:58:36.417Z,48.80
2018-06-19T13:01:04.662Z,46.26
2018-06-19T13:03:44.360Z,47.58
2018-06-19T13:06:24.026Z,47.38
2018-06-19T13:08:52.325Z,45.93
2018-06-19T13:11:20.561Z,44.70
2018-06-19T13:14:00.057Z,45.20
2018-06-19T13:16:39.552Z,44.21
2018-06-19T13:19:23.469Z,44.52
2018-06-19T13:21:51.964Z,44.91
2018-06-19T13:24:20.432Z,44.07
2018-06-19T13:26:48.625Z,44.57
2018-06-19T13:29:39.557Z,44.70
2018-06-19T13:32:07.814Z,44.40
2018-06-19T13:34:36.649Z,44.38
2018-06-19T13:37:05.405Z,43.24
2018-06-19T13:39:34.217Z,41.93
2018-06-19T13:42:14.217Z,41.70
2018-06-19T13:44:56.909Z,41.09
2018-06-19T13:47:25.249Z,40.94
2018-06-19T13:49:53.714Z,38.93
2018-06-19T13:52:22.033Z,38.50
2018-06-19T13:54:50.292Z,35.17
2018-06-19T13:57:32.465Z,34.21
2018-06-19T14:00:02.109Z,34.96
2018-06-19T14:02:30.446Z,35.60
2018-06-19T14:04:59.072Z,32.67
2018-06-19T14:07:28.483Z,34.55
2018-06-19T14:10:08.321Z,32.97
2018-06-19T14:13:13.036Z,29.20
2018-06-19T14:15:44.342Z,26.03
2018-06-19T14:18:13.526Z,26.31
2018-06-19T14:20:42.409Z,22.03
2018-06-19T14:23:10.893Z,24.52
2018-06-19T14:25:39.221Z,30.67
2018-06-19T14:28:07.602Z,29.04
2018-06-19T14:30:36.001Z,29.66
2018-06-19T14:33:04.386Z,28.27
2018-06-19T14:35:32.598Z,27.09
2018-06-19T14:38:00.832Z,25.50
2018-06-19T14:40:29.181Z,21.23
2018-06-19T14:42:57.431Z,21.90
2018-06-19T14:45:25.845Z,19.80
2018-06-19T14:47:54.112Z,23.62
2018-06-19T14:50:22.374Z,21.22
2018-06-19T14:52:50.621Z,22.47
2018-06-19T14:55:18.906Z,23.96
2018-06-19T14:57:47.205Z,20.27
2018-06-19T15:00:15.489Z,25.57
2018-06-19T15:02:43.735Z,23.41
2018-06-19T15:05:12.018Z,22.56
2018-06-19T15:07:45.646Z,23.10
2018-06-19T15:10:16.110Z,23.68
2018-06-19T15:12:44.381Z,24.15
2018-06-19T15:15:12.756Z,18.31
2018-06-19T15:17:41.067Z,19.43
2018-06-19T15:20:09.377Z,17.77
2018-06-19T15:22:37.679Z,21.54
2018-06-19T15:25:06.063Z,17.12
2018-06-19T15:27:34.490Z,21.51
2018-06-19T15:30:03.368Z,21.24
2018-06-19T15:32:31.644Z,23.29
2018-06-19T15:34:59.950Z,19.66
2018-06-19T15:37:28.244Z,16.70
2018-06-19T15:39:56.614Z,18.87
2018-06-19T15:42:24.945Z,19.71
2018-06-19T15:44:53.396Z,21.10
2018-06-19T15:47:21.711Z,22.88
2018-06-19T15:49:50.124Z,22.27
2018-06-19T15:52:18.463Z,24.45
2018-06-19T15:54:47.608Z,19.71
2018-06-19T15:57:15.937Z,18.22
2018-06-19T15:59:44.381Z,18.46
2018-06-19T16:02:12.697Z,16.42
2018-06-19T16:04:40.976Z,22.51
2018-06-19T16:07:09.297Z,22.67
2018-06-19T16:09:37.605Z,20.81
2018-06-19T16:12:06.120Z,20.92
2018-06-19T16:14:34.425Z,18.02
2018-06-19T16:17:02.874Z,17.50
2018-06-19T16:19:33.233Z,20.10
2018-06-19T16:22:01.601Z,18.70
2018-06-19T16:24:29.895Z,18.01
2018-06-19T16:26:58.269Z,18.32
2018-06-19T16:29:26.537Z,18.74
2018-06-19T16:31:54.990Z,17.96
2018-06-19T16:34:23.365Z,18.35
2018-06-19T16:36:51.708Z,21.33
2018-06-19T16:39:20.045Z,19.24
2018-06-19T16:41:48.373Z,14.62
2018-06-19T16:44:16.685Z,18.58
2018-06-19T16:46:45.090Z,22.54
2018-06-19T16:49:13.818Z,22.23
2018-06-19T16:51:42.113Z,20.00
2018-06-19T16:54:10.445Z,19.73
2018-06-19T16:56:38.741Z,19.11
2018-06-19T16:59:07.065Z,20.96
2018-06-19T17:01:35.352Z,17.84
2018-06-19T17:04:03.673Z,18.86
2018-06-19T17:06:31.985Z,22.15
2018-06-19T17:09:00.337Z,20.46
2018-06-19T17:11:28.621Z,24.19
2018-06-19T17:13:56.966Z,21.27
2018-06-19T17:16:25.262Z,21.33
2018-06-19T17:18:53.609Z,25.49
2018-06-19T17:21:21.971Z,24.69
2018-06-19T17:23:50.250Z,22.76
2018-06-19T17:26:18.540Z,19.63
2018-06-19T17:28:46.860Z,23.57
2018-06-19T17:31:15.198Z,24.27
2018-06-19T17:33:43.500Z,26.33
2018-06-19T17:36:11.822Z,24.20
2018-06-19T17:38:40.167Z,23.86
2018-06-19T17:41:08.480Z,20.01
2018-06-19T17:43:36.815Z,22.92
2018-06-19T17:46:05.137Z,25.32
2018-06-19T17:48:33.409Z,35.31
2018-06-19T17:51:01.675Z,40.13
2018-06-19T17:53:29.925Z,41.58
2018-06-19T17:55:58.213Z,42.94
2018-06-19T17:58:26.476Z,45.40
2018-06-19T18:00:54.825Z,46.13
2018-06-19T18:03:23.109Z,46.97
2018-06-19T18:05:51.402Z,48.07
2018-06-19T18:08:19.668Z,47.66
2018-06-19T18:10:48.072Z,47.88
2018-06-19T18:13:16.272Z,48.49
2018-06-19T18:15:44.553Z,48.05
2018-06-19T18:18:12.841Z,48.98
2018-06-19T18:20:41.448Z,48.63
2018-06-19T18:23:09.755Z,48.58
2018-06-19T18:25:38.107Z,49.29
2018-06-19T18:28:06.382Z,49.78
2018-06-19T18:30:34.695Z,50.62
2018-06-19T18:33:03.136Z,51.59
2018-06-19T18:35:31.450Z,52.02
2018-06-19T18:37:59.729Z,52.85
2018-06-19T18:40:28.013Z,53.17
2018-06-19T18:42:56.382Z,53.27
2018-06-19T18:45:24.677Z,52.48
2018-06-19T18:47:52.961Z,52.79
2018-06-19T18:50:21.242Z,53.44
2018-06-19T18:52:49.546Z,53.87
2018-06-19T18:55:17.839Z,54.61
2018-06-19T18:57:46.120Z,55.09
2018-06-19T19:00:14.420Z,55.68
2018-06-19T19:02:42.721Z,55.71
2018-06-19T19:05:10.973Z,55.73
2018-06-19T19:07:39.250Z,55.72
2018-06-19T19:10:12.949Z,56.48
2018-06-19T19:12:41.233Z,56.32
2018-06-19T19:15:14.766Z,55.94
2018-06-19T19:17:48.484Z,57.17
2018-06-19T19:20:16.752Z,57.09
2018-06-19T19:22:45.033Z,57.33
2018-06-19T19:25:13.297Z,58.35
2018-06-19T19:27:46.893Z,58.41
2018-06-19T19:30:15.153Z,59.22
2018-06-19T19:32:43.438Z,59.83
2018-06-19T19:35:11.702Z,59.31
2018-06-19T19:37:45.200Z,59.44
2018-06-19T19:40:13.553Z,60.42
2018-06-19T19:42:42.020Z,60.30
2018-06-19T19:45:16.033Z,61.34
2018-06-19T19:47:52.153Z,61.58
2018-06-19T19:50:21.928Z,61.61
2018-06-19T19:57:15.641Z,62.05
2018-06-19T20:23:46.723Z,64.31
2018-06-19T20:26:16.310Z,64.41
2018-06-19T20:28:44.838Z,65.23
2018-06-19T20:31:14.092Z,65.65
2018-06-19T20:33:43.134Z,65.67
2018-06-19T20:55:25.702Z,67.13
2018-06-19T20:57:55.014Z,66.81
2018-06-19T21:00:29.454Z,67.04
2018-06-19T21:03:14.441Z,66.98
2018-06-19T21:05:43.098Z,67.63
2018-06-19T21:08:11.292Z,67.45
2018-06-19T21:53:54.447Z,69.90
2018-06-19T21:56:22.919Z,70.17
2018-06-19T21:58:51.506Z,70.48
2018-06-19T22:01:19.978Z,70.56
2018-06-19T22:37:18.877Z,74.39
2018-06-19T22:39:47.087Z,73.69
2018-06-19T22:42:15.325Z,73.45
2018-06-19T23:06:06.639Z,75.89
2018-06-19T23:19:29.898Z,75.15
2018-06-19T23:21:58.092Z,75.39
2018-06-19T23:24:26.282Z,75.23
2018-06-19T23:26:54.461Z,75.88
2018-06-19T23:29:22.632Z,75.28
2018-06-19T23:32:04.747Z,75.59
